Heber, UT

05:45 PM MDT am 29. März 2015 (GMT -0600)
Heber | | Change Station
CLOSE
Current Station
Flughafen
Location: Heber,
Höhe: 5636 ft
Wetterstationen in der Umgebung

Höhe 5636 ft 40.48 °N, 111.43 °W | Updated 10 minutes ago

Heiter
Heiter
68 °F
gefühlte 68 °F
N
12
Wind Wechselnd Wind aus Südwest

Heute
Max. -- | schwach -- °F
--% Regenrisiko
Gestern
Max. -- | schwach -- °F
Precip. -- inch
7:13 AM 7:46 PM
Zweites Viertel, 75% visible
Druck 30.19 inch
Sichtweite 10.0 Meilen
Wolken Heiter
Taupunkt 18 °F
Feuchtigkeit 15%
Regen 0.00 inch
Schneehöhe Nicht verfügbar..
UV 2 von 12
Pollen 8.10 von 12
Luftqualität Nicht verfügbar..
Flu Activity Nicht verfügbar..
METAR K36U 292335Z AUTO 23010KT 10SM CLR 20/M08 A3019 RMK AO2

More Conditions Fewer Conditions

Druck 30.19 inch
Sichtweite 10.0 Meilen
Wolken Heiter
Taupunkt 18 °F
Feuchtigkeit 15%
Regen 0.00 inch
Schneehöhe Nicht verfügbar..
UV 2 von 12
Pollen 8.10 von 12
Luftqualität Nicht verfügbar..
Flu Activity Nicht verfügbar..
METAR K36U 292335Z AUTO 23010KT 10SM CLR 20/M08 A3019 RMK AO2

More Conditions Fewer Conditions

10-Day Weather Forecast

Almanac

Astronomie

Mar. 29, 2015 Aufgang Untergang
Genaue Zeit
Bürgerliche Dämmerung
Nautische Dämmerung
Astronomische Dämmerung
Mond
Länge des sichtbaren Lichts
Tageslänge
Tomorrow will be .
, % of the Moon is Illuminated

Heutige Rekorde

State Highs State Lows

Community

WunderPhotos

Upload Photos

1,809,380 Fotos hochgeladen!

WunderBlogs® & News

Nearby

Luftqualität

  Luftqualität LQ Index Schadstoff
Not available.

Schneehöhe

Station Depth Höhe

Erdbebenaktivität

Stadt Distance Mag. Time & Date
Minimum magnitude displayed is 2.5.

küstennahe Wassertemperaturen

Ort Temperatur

Stations

Wetterstationen in der Umgebung

Stationsstandort Temp. Windchill Taupunkt Feuchtigkeit Wind Precip. Höhe Aktualisiert Art